createdAt,value
2022-09-18T02:51:41.103Z,56.07
2022-09-18T02:58:42.188Z,50.11
2022-09-18T03:07:02.475Z,58.81
2022-09-18T03:08:03.786Z,56.07
2022-09-18T03:09:03.713Z,59.30
2022-09-18T03:10:04.087Z,59.78
2022-09-18T03:11:04.375Z,49.63
2022-09-18T03:12:03.331Z,56.72
2022-09-18T03:13:04.507Z,61.39
2022-09-18T03:14:03.674Z,56.40
2022-09-18T03:15:03.526Z,56.24
2022-09-18T03:16:03.532Z,61.87
2022-09-18T03:17:03.635Z,55.91
2022-09-18T03:18:03.435Z,56.07
2022-09-18T03:19:03.410Z,54.30
2022-09-18T03:20:03.580Z,45.76
2022-09-18T03:21:03.344Z,53.98
2022-09-18T03:22:03.334Z,58.33
2022-09-18T03:23:03.662Z,60.75
2022-09-18T03:24:03.348Z,59.46
2022-09-18T03:25:03.360Z,58.01
2022-09-18T03:26:03.257Z,58.65
2022-09-18T03:27:03.158Z,53.50
2022-09-18T03:28:03.164Z,44.47
2022-09-18T03:29:03.392Z,54.46
2022-09-18T03:30:03.725Z,56.56
2022-09-18T03:31:04.667Z,47.53
2022-09-18T03:32:03.539Z,59.94
2022-09-18T03:33:03.225Z,53.17
2022-09-18T03:34:03.324Z,53.17
2022-09-18T03:35:03.865Z,60.42
2022-09-18T03:36:03.222Z,59.94
2022-09-18T03:37:03.190Z,57.69
2022-09-18T03:38:03.239Z,59.94
2022-09-18T03:39:03.203Z,37.54
2022-09-18T03:40:03.246Z,50.76
2022-09-18T03:41:04.853Z,59.62
2022-09-18T03:42:03.535Z,57.36
2022-09-18T03:43:03.382Z,58.01
2022-09-18T03:44:03.619Z,58.97
2022-09-18T03:45:03.617Z,54.30
2022-09-18T03:46:03.113Z,57.36
2022-09-18T03:47:03.446Z,56.88
2022-09-18T03:48:03.014Z,57.69
2022-09-18T03:49:02.920Z,57.69
2022-09-18T03:50:03.264Z,60.91
2022-09-18T03:51:03.622Z,55.43
2022-09-18T03:52:02.955Z,63.00
2022-09-18T03:53:03.399Z,59.62
2022-09-18T03:54:03.240Z,58.49
2022-09-18T03:55:02.987Z,56.56
2022-09-18T03:56:03.181Z,59.94
2022-09-18T03:57:03.061Z,55.43
2022-09-18T03:58:03.067Z,55.91
2022-09-18T03:59:02.866Z,54.79
2022-09-18T04:00:02.826Z,56.07
2022-09-18T04:01:02.843Z,54.30
2022-09-18T04:02:04.173Z,56.72
2022-09-18T04:03:03.034Z,52.37
2022-09-18T04:04:02.827Z,53.01
2022-09-18T04:05:02.905Z,60.10
2022-09-18T04:06:02.900Z,58.49
2022-09-18T04:07:02.818Z,56.24
2022-09-18T04:08:38.635Z,57.20
2022-09-18T04:09:03.329Z,52.69
2022-09-18T04:10:03.278Z,57.85
2022-09-18T04:11:03.008Z,57.36
2022-09-18T04:12:02.836Z,58.49
2022-09-18T04:13:02.724Z,55.43
2022-09-18T04:14:02.795Z,62.84
2022-09-18T04:15:02.809Z,60.26
2022-09-18T04:16:03.025Z,55.27
2022-09-18T04:17:02.661Z,59.62
2022-09-18T04:18:02.768Z,53.50
2022-09-18T04:19:03.181Z,62.20
2022-09-18T04:20:02.735Z,58.33
2022-09-18T04:21:02.696Z,56.40
2022-09-18T04:22:02.646Z,60.10
2022-09-18T04:23:02.806Z,59.14
2022-09-18T04:24:02.844Z,59.78
2022-09-18T04:25:02.804Z,61.07
2022-09-18T04:26:02.680Z,62.20
2022-09-18T04:27:02.616Z,59.78
2022-09-18T04:28:02.700Z,60.75
2022-09-18T04:29:02.894Z,60.75
2022-09-18T04:30:02.545Z,57.36
2022-09-18T04:31:02.855Z,61.87
2022-09-18T04:32:02.534Z,64.13
2022-09-18T04:33:02.871Z,62.52
2022-09-18T04:34:02.532Z,60.75
2022-09-18T04:35:02.839Z,62.52
2022-09-18T04:36:02.803Z,59.62
2022-09-18T04:37:04.835Z,57.85
2022-09-18T04:38:02.598Z,56.24
2022-09-18T04:39:02.789Z,60.91
2022-09-18T04:40:02.627Z,61.39
2022-09-18T04:41:02.510Z,57.20
2022-09-18T04:42:02.694Z,55.75
2022-09-18T04:43:02.513Z,57.04
2022-09-18T04:44:02.561Z,61.23
2022-09-18T04:45:02.455Z,63.16
2022-09-18T04:46:02.528Z,57.85
2022-09-18T04:47:02.539Z,63.81
2022-09-18T04:48:02.431Z,63.33
2022-09-18T04:49:02.614Z,51.08
2022-09-18T04:50:02.339Z,60.42
2022-09-18T04:51:02.489Z,57.36
2022-09-18T04:52:02.641Z,58.97
2022-09-18T04:53:02.282Z,57.04
2022-09-18T04:54:02.569Z,59.62
2022-09-18T04:55:02.312Z,56.88
2022-09-18T04:56:02.540Z,61.07
2022-09-18T04:57:02.266Z,57.20
2022-09-18T04:58:02.303Z,56.24
2022-09-18T04:59:02.674Z,62.04
2022-09-18T05:00:02.615Z,59.94
2022-09-18T05:01:02.423Z,58.49
2022-09-18T05:02:02.372Z,53.98
2022-09-18T05:03:02.451Z,58.01
2022-09-18T05:04:02.206Z,64.94
2022-09-18T05:05:02.210Z,62.20
2022-09-18T05:06:02.222Z,64.61
2022-09-18T05:07:02.188Z,60.91
2022-09-18T05:08:02.129Z,58.81
2022-09-18T05:12:56.568Z,62.20
2022-09-18T05:17:29.829Z,59.78
2022-09-18T05:18:29.809Z,61.71
2022-09-18T05:19:29.938Z,60.91
2022-09-18T05:20:29.798Z,57.04
2022-09-18T05:21:29.740Z,60.10
2022-09-18T05:22:29.711Z,58.49
2022-09-18T05:23:29.762Z,60.91
2022-09-18T05:24:29.726Z,57.04
2022-09-18T05:25:29.698Z,47.37
2022-09-18T05:26:29.677Z,60.10
2022-09-18T05:27:29.653Z,61.07
2022-09-18T05:28:29.699Z,59.94
2022-09-18T05:29:29.626Z,59.78
2022-09-18T05:30:30.899Z,57.85
2022-09-18T05:31:31.297Z,51.56
2022-09-18T05:32:31.162Z,62.52
2022-09-18T05:33:30.974Z,60.75
2022-09-18T05:34:30.837Z,62.68
2022-09-18T05:35:31.221Z,58.97
2022-09-18T05:36:30.853Z,61.87
2022-09-18T05:37:31.347Z,59.30
2022-09-18T05:38:30.866Z,60.42
2022-09-18T05:39:30.733Z,60.42
2022-09-18T05:40:31.200Z,57.04
2022-09-18T05:41:30.884Z,57.85
2022-09-18T05:42:30.774Z,61.87
2022-09-18T05:43:31.118Z,61.71
2022-09-18T05:44:30.835Z,57.36
2022-09-18T05:45:30.901Z,58.65
2022-09-18T05:46:30.793Z,60.91
2022-09-18T05:47:30.659Z,61.07
2022-09-18T05:48:30.775Z,56.40
2022-09-18T05:49:31.715Z,66.06
2022-09-18T05:50:30.809Z,60.91
2022-09-18T05:51:30.860Z,60.91
2022-09-18T05:52:30.682Z,60.42
2022-09-18T05:53:30.713Z,61.55
2022-09-18T05:54:30.865Z,61.55
2022-09-18T05:55:31.992Z,62.84
2022-09-18T05:56:31.713Z,54.62
2022-09-18T05:57:30.595Z,56.72
2022-09-18T05:58:30.694Z,59.78
2022-09-18T05:59:30.913Z,60.26
2022-09-18T06:00:30.544Z,59.46
2022-09-18T06:01:30.619Z,58.33
2022-09-18T06:02:30.981Z,54.79
2022-09-18T06:03:30.849Z,61.23
2022-09-18T06:04:30.833Z,60.91
2022-09-18T06:05:30.501Z,60.91
2022-09-18T06:06:30.844Z,56.56
2022-09-18T06:07:30.644Z,58.33
2022-09-18T06:08:30.593Z,57.85
2022-09-18T06:09:30.503Z,61.39
2022-09-18T06:10:30.569Z,59.78
2022-09-18T06:11:30.447Z,56.72
2022-09-18T06:12:30.480Z,60.42
2022-09-18T06:13:30.598Z,65.10
2022-09-18T06:14:30.537Z,66.06
2022-09-18T06:15:30.492Z,60.91
2022-09-18T06:16:30.657Z,58.33
2022-09-18T06:17:30.605Z,60.42
2022-09-18T06:18:30.465Z,60.91
2022-09-18T06:19:30.625Z,49.95
2022-09-18T06:20:30.586Z,61.39
2022-09-18T06:21:30.387Z,60.75
2022-09-18T06:22:30.462Z,63.16
2022-09-18T06:23:30.392Z,63.33
2022-09-18T06:24:30.473Z,56.88
2022-09-18T06:25:30.449Z,57.52
2022-09-18T06:26:30.559Z,53.82
2022-09-18T06:27:30.420Z,59.94
2022-09-18T06:28:30.312Z,63.97
2022-09-18T06:29:30.343Z,60.42
2022-09-18T06:30:30.279Z,61.55
2022-09-18T06:31:30.443Z,58.33
2022-09-18T06:32:30.277Z,62.20
2022-09-18T06:33:30.212Z,59.14
2022-09-18T06:34:30.396Z,60.91
2022-09-18T06:35:30.276Z,62.84
2022-09-18T06:36:30.312Z,58.49
2022-09-18T06:37:30.242Z,60.91
2022-09-18T06:38:30.355Z,61.07
2022-09-18T06:39:30.227Z,63.00
2022-09-18T06:40:30.343Z,63.00
2022-09-18T06:41:30.144Z,61.55
2022-09-18T06:42:30.242Z,61.87
2022-09-18T06:43:30.103Z,58.65
2022-09-18T06:44:30.138Z,61.71
2022-09-18T06:45:30.144Z,62.36
2022-09-18T06:46:30.181Z,63.16
2022-09-18T06:47:30.355Z,57.36
2022-09-18T06:48:30.218Z,62.68
2022-09-18T06:49:30.073Z,60.42
2022-09-18T06:50:30.108Z,60.26
2022-09-18T06:51:30.095Z,61.07
2022-09-18T06:52:30.071Z,62.84
2022-09-18T06:53:30.278Z,62.36
2022-09-18T06:54:30.098Z,61.23
2022-09-18T06:55:30.089Z,62.36
2022-09-18T06:56:30.067Z,58.49
2022-09-18T06:57:30.069Z,63.65
2022-09-18T06:58:29.963Z,59.62
2022-09-18T06:59:31.109Z,59.94
2022-09-18T07:00:30.014Z,56.24
2022-09-18T07:01:30.003Z,59.78
2022-09-18T07:02:30.223Z,62.04
2022-09-18T07:03:30.077Z,66.06
2022-09-18T07:04:29.894Z,61.71
2022-09-18T07:05:29.987Z,62.68
2022-09-18T07:06:30.037Z,58.65
2022-09-18T07:07:30.024Z,60.59
2022-09-18T07:08:29.904Z,60.91
2022-09-18T07:09:29.937Z,59.78
2022-09-18T07:10:29.966Z,60.26
2022-09-18T07:11:29.857Z,62.20
2022-09-18T07:12:29.889Z,60.26
2022-09-18T07:13:29.927Z,64.78
2022-09-18T07:14:30.179Z,59.94
2022-09-18T07:15:29.906Z,62.36
2022-09-18T07:16:30.130Z,62.68
2022-09-18T07:17:30.424Z,61.23
2022-09-18T07:18:30.010Z,61.39
2022-09-18T07:19:29.807Z,60.42
2022-09-18T07:20:29.860Z,59.62
2022-09-18T07:21:30.429Z,58.81
2022-09-18T07:22:30.336Z,60.42
2022-09-18T07:23:30.328Z,60.10
2022-09-18T07:24:29.779Z,62.20
2022-09-18T07:25:30.213Z,59.46
2022-09-18T07:26:30.211Z,60.75
2022-09-18T07:27:30.517Z,61.39
2022-09-18T07:28:30.064Z,63.33
2022-09-18T07:29:29.868Z,61.87
2022-09-18T07:30:29.685Z,63.33
2022-09-18T07:31:30.054Z,64.94
2022-09-18T07:32:29.735Z,61.07
2022-09-18T07:33:30.501Z,60.26
2022-09-18T07:34:31.021Z,57.85
2022-09-18T07:35:29.841Z,64.45
2022-09-18T07:36:30.565Z,62.68
2022-09-18T07:37:30.395Z,62.04
2022-09-18T07:38:30.973Z,63.49
2022-09-18T07:39:30.067Z,61.87
2022-09-18T07:40:30.519Z,59.94
2022-09-18T07:41:30.333Z,59.78
2022-09-18T07:42:29.871Z,63.16
2022-09-18T07:43:30.506Z,61.39
2022-09-18T07:44:30.055Z,61.71
2022-09-18T07:45:29.553Z,57.85
2022-09-18T07:46:30.730Z,62.84
2022-09-18T07:47:29.529Z,63.00
2022-09-18T07:48:29.959Z,60.59
2022-09-18T07:50:01.933Z,60.10
2022-09-18T07:50:29.770Z,62.04
2022-09-18T07:51:29.575Z,61.39
2022-09-18T07:52:29.665Z,61.55
2022-09-18T07:53:29.584Z,56.88
2022-09-18T07:54:29.607Z,62.20
2022-09-18T07:55:29.940Z,61.87
2022-09-18T07:56:29.413Z,60.91
2022-09-18T07:57:29.768Z,61.39
2022-09-18T07:58:29.737Z,60.75
2022-09-18T07:59:29.359Z,58.97
2022-09-18T08:00:29.370Z,55.27
2022-09-18T08:01:29.609Z,60.75
2022-09-18T08:02:30.046Z,60.91
2022-09-18T08:03:29.532Z,61.39
2022-09-18T08:04:29.445Z,63.65
2022-09-18T08:05:29.410Z,60.91
2022-09-18T08:06:29.432Z,61.55
2022-09-18T08:07:29.413Z,62.84
2022-09-18T08:08:55.938Z,64.94
2022-09-18T08:09:29.614Z,61.07
2022-09-18T08:10:29.457Z,61.39
2022-09-18T08:11:29.863Z,65.26
2022-09-18T08:13:11.960Z,62.68
2022-09-18T08:24:39.284Z,66.23
2022-09-18T08:25:39.172Z,65.90
2022-09-18T08:26:39.247Z,65.42
2022-09-18T08:27:39.228Z,68.48
2022-09-18T08:28:39.069Z,66.71
2022-09-18T08:29:39.057Z,66.87
2022-09-18T08:30:39.326Z,64.13
2022-09-18T08:31:40.299Z,65.26
2022-09-18T08:42:53.034Z,62.52
2022-09-18T08:51:12.318Z,64.94
2022-09-18T08:52:12.227Z,63.00
2022-09-18T08:53:12.049Z,66.55
2022-09-18T08:54:11.989Z,64.45
2022-09-18T08:55:11.937Z,63.81
2022-09-18T08:56:11.802Z,64.78
2022-09-18T08:57:15.364Z,63.00
2022-09-18T08:58:11.852Z,61.87
2022-09-18T08:59:11.795Z,66.71
2022-09-18T09:00:11.801Z,65.26
2022-09-18T09:01:45.393Z,64.13
2022-09-18T09:02:12.052Z,65.42
2022-09-18T09:03:11.838Z,64.78
2022-09-18T09:04:11.726Z,64.61
2022-09-18T09:05:11.644Z,68.16
2022-09-18T09:06:11.715Z,65.90
2022-09-18T09:07:11.834Z,63.97
2022-09-18T09:08:11.848Z,61.87
2022-09-18T09:09:15.804Z,64.94
2022-09-18T09:13:20.040Z,66.71
2022-09-18T09:14:34.214Z,63.49
2022-09-18T09:15:21.841Z,65.74
2022-09-18T09:20:18.768Z,66.55
2022-09-18T09:21:19.037Z,67.51
2022-09-18T09:22:18.581Z,67.03
2022-09-18T09:23:18.662Z,66.39
2022-09-18T09:24:18.528Z,65.74
2022-09-18T09:25:18.509Z,65.10
2022-09-18T09:26:18.594Z,68.80
2022-09-18T09:27:18.550Z,68.48
2022-09-18T09:28:18.490Z,66.71
2022-09-18T09:29:18.477Z,68.48
2022-09-18T09:30:18.502Z,66.87
2022-09-18T09:31:19.741Z,66.23
2022-09-18T09:32:19.659Z,64.45
2022-09-18T09:33:19.762Z,63.65
2022-09-18T09:34:19.630Z,65.74
2022-09-18T09:35:19.656Z,66.23
2022-09-18T09:36:19.696Z,65.58
2022-09-18T09:37:20.745Z,67.35
2022-09-18T09:38:19.716Z,64.45
2022-09-18T09:39:19.664Z,66.06
2022-09-18T09:40:19.668Z,65.26
2022-09-18T09:41:19.614Z,65.10
2022-09-18T09:42:19.566Z,65.58
2022-09-18T09:43:19.616Z,65.42
2022-09-18T09:44:19.580Z,67.03
2022-09-18T09:45:19.494Z,63.16
2022-09-18T09:49:39.248Z,65.90
2022-09-18T09:50:55.618Z,67.51
2022-09-18T09:51:35.689Z,66.87
2022-09-18T09:52:35.761Z,65.26
2022-09-18T09:53:35.671Z,66.06
2022-09-18T09:54:35.662Z,65.42
2022-09-18T09:55:35.651Z,65.74
2022-09-18T09:56:35.937Z,66.39
2022-09-18T09:57:35.647Z,65.74
2022-09-18T10:01:53.254Z,65.26
2022-09-18T10:02:53.129Z,64.94
2022-09-18T10:03:53.133Z,66.06
2022-09-18T10:04:53.077Z,65.26
2022-09-18T10:05:54.464Z,66.23
2022-09-18T10:07:26.951Z,64.78
2022-09-18T10:07:54.812Z,62.36
2022-09-18T10:08:54.190Z,64.13
2022-09-18T10:09:54.349Z,65.10
2022-09-18T10:10:54.113Z,66.71
2022-09-18T10:11:57.225Z,65.90
2022-09-18T10:12:55.113Z,68.48
2022-09-18T10:13:54.276Z,67.84
2022-09-18T10:14:54.114Z,66.87
2022-09-18T10:15:54.140Z,66.55
2022-09-18T10:16:54.810Z,64.61
2022-09-18T10:17:54.386Z,67.19
2022-09-18T10:18:54.198Z,67.51
2022-09-18T10:31:09.422Z,68.80
2022-09-18T10:32:09.344Z,65.74
2022-09-18T10:33:10.628Z,65.74
2022-09-18T10:34:10.606Z,68.96
2022-09-18T10:35:10.516Z,65.26
2022-09-18T10:36:10.452Z,64.94
2022-09-18T10:37:10.405Z,63.49
2022-09-18T10:38:10.449Z,68.48
2022-09-18T10:39:10.445Z,68.64
2022-09-18T10:40:10.422Z,65.42
2022-09-18T10:41:10.469Z,64.45
2022-09-18T10:42:10.403Z,64.13
2022-09-18T10:43:10.384Z,64.78
2022-09-18T10:44:10.309Z,63.97
2022-09-18T10:45:10.386Z,65.74
2022-09-18T10:46:10.391Z,64.61
2022-09-18T10:50:54.722Z,68.48
2022-09-18T10:51:54.767Z,64.78
2022-09-18T10:52:54.744Z,66.23
2022-09-18T10:53:54.599Z,67.03
2022-09-18T10:57:29.189Z,65.42
2022-09-18T11:23:22.903Z,67.03
2022-09-18T11:24:22.796Z,68.32
2022-09-18T11:25:23.294Z,66.71
2022-09-18T11:26:22.594Z,67.35
2022-09-18T11:27:22.858Z,66.71
2022-09-18T11:28:22.731Z,66.87
2022-09-18T11:29:22.689Z,65.74
2022-09-18T11:30:56.917Z,66.87
2022-09-18T11:31:23.031Z,64.29
2022-09-18T11:32:22.823Z,67.84
2022-09-18T11:33:22.690Z,67.68
2022-09-18T11:34:22.600Z,66.23
2022-09-18T11:35:22.789Z,66.71
2022-09-18T11:36:23.218Z,67.35
2022-09-18T11:37:22.637Z,65.42
2022-09-18T12:03:22.175Z,66.87
2022-09-18T12:04:22.171Z,66.71
2022-09-18T12:05:21.839Z,67.51
2022-09-18T12:06:21.919Z,66.71
2022-09-18T12:07:39.362Z,67.68
2022-09-18T12:08:20.461Z,66.71
2022-09-18T12:09:20.583Z,72.03
2022-09-18T12:10:20.480Z,69.61
2022-09-18T12:11:20.629Z,69.77
2022-09-18T12:12:20.434Z,66.87
2022-09-18T12:13:20.445Z,67.84
2022-09-18T12:14:20.398Z,70.90
2022-09-18T12:15:20.405Z,68.96
2022-09-18T12:16:20.419Z,67.68
2022-09-18T12:17:20.348Z,66.23
2022-09-18T12:18:20.445Z,68.16
2022-09-18T12:19:20.322Z,67.03
2022-09-18T12:20:20.347Z,67.84
2022-09-18T12:21:20.333Z,68.16
2022-09-18T12:22:20.384Z,68.00
2022-09-18T12:23:20.333Z,68.16
2022-09-18T12:24:20.327Z,67.68
2022-09-18T12:25:20.320Z,67.68
2022-09-18T12:26:20.266Z,65.90
2022-09-18T12:27:22.690Z,68.00
2022-09-18T12:28:20.312Z,66.87
2022-09-18T12:29:20.273Z,67.19
2022-09-18T12:30:20.227Z,65.58
2022-09-18T12:31:20.268Z,65.90
2022-09-18T12:32:20.325Z,68.64
2022-09-18T12:33:20.230Z,67.68
2022-09-18T12:34:20.280Z,65.10
2022-09-18T12:35:20.269Z,73.48
2022-09-18T12:36:20.284Z,68.00
2022-09-18T12:37:20.183Z,66.71
2022-09-18T12:38:20.368Z,67.84
2022-09-18T12:39:20.830Z,66.23
2022-09-18T12:40:20.877Z,66.39
2022-09-18T12:41:20.980Z,66.39
2022-09-18T12:42:20.828Z,67.19
2022-09-18T12:43:20.814Z,68.80
2022-09-18T12:44:20.767Z,65.26
2022-09-18T12:45:20.790Z,66.71
2022-09-18T12:46:20.775Z,66.55
2022-09-18T12:47:23.871Z,66.87
2022-09-18T12:48:21.753Z,69.61
2022-09-18T12:49:20.707Z,66.71
2022-09-18T12:50:20.776Z,68.96
2022-09-18T12:51:20.792Z,68.32
2022-09-18T12:52:21.783Z,70.58
2022-09-18T12:53:20.673Z,67.68
2022-09-18T12:54:20.896Z,66.71
2022-09-18T12:55:20.660Z,65.26
2022-09-18T12:56:20.705Z,66.23
2022-09-18T12:57:20.664Z,67.84
2022-09-18T12:58:20.711Z,66.23
2022-09-18T12:59:20.708Z,64.45
2022-09-18T13:00:20.681Z,65.10
2022-09-18T13:01:20.690Z,65.74
2022-09-18T13:02:23.424Z,64.94
2022-09-18T13:03:20.651Z,67.03
2022-09-18T13:04:20.610Z,66.55
2022-09-18T13:05:20.554Z,65.42
2022-09-18T13:06:20.630Z,65.90
2022-09-18T13:07:20.866Z,66.06
2022-09-18T13:08:20.522Z,64.94
2022-09-18T13:09:25.167Z,65.74
2022-09-18T13:10:22.574Z,65.10
2022-09-18T13:11:20.650Z,65.42
2022-09-18T13:12:20.511Z,64.13
2022-09-18T13:13:20.507Z,63.65
2022-09-18T13:14:20.459Z,67.35
2022-09-18T13:15:20.674Z,64.13
2022-09-18T13:16:21.354Z,63.00
2022-09-18T13:17:21.130Z,64.61
2022-09-18T13:18:21.142Z,65.26
2022-09-18T13:19:21.278Z,64.78
2022-09-18T13:20:21.200Z,68.48
2022-09-18T13:21:21.241Z,67.19
2022-09-18T13:22:21.549Z,65.26
2022-09-18T13:23:21.241Z,65.26
2022-09-18T13:24:23.042Z,65.10
2022-09-18T13:25:21.086Z,67.19
2022-09-18T13:26:21.608Z,64.29
2022-09-18T13:27:21.116Z,66.06
2022-09-18T13:28:21.136Z,64.61
2022-09-18T13:29:21.071Z,66.23
2022-09-18T13:30:21.084Z,66.23
2022-09-18T13:31:21.243Z,64.45
2022-09-18T13:32:21.026Z,65.74
2022-09-18T13:33:21.392Z,63.16
2022-09-18T13:34:21.141Z,65.58
2022-09-18T13:35:21.131Z,65.42
2022-09-18T13:36:21.541Z,66.23
2022-09-18T13:37:20.971Z,65.90
2022-09-18T13:38:21.035Z,64.78
2022-09-18T13:39:20.973Z,67.03
2022-09-18T13:40:21.119Z,64.29
2022-09-18T13:41:21.324Z,66.23
2022-09-18T13:42:21.062Z,64.45
2022-09-18T13:43:20.915Z,64.78
2022-09-18T13:44:20.974Z,63.65
2022-09-18T13:45:20.913Z,64.29
2022-09-18T13:46:20.961Z,65.42
2022-09-18T13:47:20.895Z,66.06
2022-09-18T13:48:20.928Z,66.23
2022-09-18T13:49:21.017Z,65.26
2022-09-18T13:50:20.806Z,66.06
2022-09-18T13:51:21.642Z,64.45
2022-09-18T13:52:21.238Z,66.87
2022-09-18T13:53:20.782Z,66.71
